Barnes, Wisconsin
Current Conditions -  °F | °C
As of 11:55 AM on Tuesday 21 Oct 2014 (Local Time) from KOLG Reporting Station
Broken Clouds Broken Clouds  
Wind Chill: 39°   Ceiling: 2000
Heat Index: 43°   Visibility: 10mi
Dew Point: 34°   Wind: 6mph
Humidity: 70%   Direction: 140°SE
Pressure: 30.24"   Gusts: NA
Location:  46.3544°N, 91.6708°W
Report Text: KOLG 211655Z AUTO 14005KT 10SM BKN020 06/01 A3024 RMK AO1
Loading
Personal Weather Stations






























Interactive Weather Map
Tropical Storm Tracking
New forecast layout! Learn more

10-Day Weather Forecast

Advertisements
Track Severe Weather on mobile